Aviation Digital Data Service (ADDS)

Output produced by TAFs form (1959 UTC 31 October 2014)
found at http://aviationweather.gov/adds/tafs/
 
KTCS 311739Z 3118/0118 VRB05KT P6SM FEW080 SCT220 
     FM312000 17013G20KT P6SM FEW080 SCT250 
     FM010400 19010KT P6SM VCSH SCT050 BKN200 
     FM011200 VRB05KT P6SM SCT040 BKN250